createdAt,value
2018-02-12T00:00:43.692Z,24.60
2018-02-12T00:01:43.605Z,21.20
2018-02-12T00:02:43.524Z,21.30
2018-02-12T00:03:43.434Z,20.70
2018-02-12T00:04:43.356Z,24.20
2018-02-12T00:05:43.274Z,20.20
2018-02-12T00:06:43.183Z,23.10
2018-02-12T00:07:43.097Z,20.90
2018-02-12T00:08:43.018Z,22.50
2018-02-12T00:09:42.921Z,21.20
2018-02-12T00:10:42.853Z,21.10
2018-02-12T00:11:42.772Z,23.40
2018-02-12T00:12:42.679Z,22.90
2018-02-12T00:13:42.587Z,23.80
2018-02-12T00:14:42.507Z,23.40
2018-02-12T00:15:42.426Z,25.80
2018-02-12T00:16:42.335Z,21.50
2018-02-12T00:17:42.251Z,24.10
2018-02-12T00:18:42.164Z,25.60
2018-02-12T00:19:42.077Z,23.10
2018-02-12T00:20:41.999Z,23.00
2018-02-12T00:21:41.917Z,20.40
2018-02-12T00:22:41.820Z,24.00
2018-02-12T00:23:41.744Z,23.00
2018-02-12T00:24:41.651Z,24.10
2018-02-12T00:25:41.573Z,22.60
2018-02-12T00:26:41.491Z,22.00
2018-02-12T00:27:41.404Z,23.70
2018-02-12T00:28:41.326Z,21.80
2018-02-12T00:29:41.226Z,24.90
2018-02-12T00:30:41.151Z,25.80
2018-02-12T00:31:41.078Z,25.70
2018-02-12T00:32:40.979Z,24.40
2018-02-12T00:33:40.901Z,23.90
2018-02-12T00:34:40.802Z,24.70
2018-02-12T00:35:40.724Z,24.60
2018-02-12T00:36:40.643Z,25.00
2018-02-12T00:37:40.559Z,23.30
2018-02-12T00:38:40.475Z,22.60
2018-02-12T00:39:40.379Z,24.80
2018-02-12T00:40:40.286Z,26.00
2018-02-12T00:41:40.221Z,25.40
2018-02-12T00:42:40.131Z,25.50
2018-02-12T00:43:40.044Z,27.80
2018-02-12T00:44:39.959Z,27.70
2018-02-12T00:45:39.876Z,27.10
2018-02-12T00:46:39.796Z,26.50
2018-02-12T00:47:39.702Z,29.40
2018-02-12T00:48:39.629Z,27.50
2018-02-12T00:49:39.528Z,25.80
2018-02-12T00:50:39.440Z,28.80
2018-02-12T00:51:39.361Z,26.90
2018-02-12T00:52:39.272Z,27.00
2018-02-12T00:53:39.187Z,27.70
2018-02-12T00:54:39.104Z,30.30
2018-02-12T00:55:39.026Z,27.40
2018-02-12T00:56:38.931Z,28.70
2018-02-12T00:57:38.865Z,28.00
2018-02-12T00:58:38.775Z,30.90
2018-02-12T00:59:38.682Z,32.50
2018-02-12T01:00:38.602Z,32.40
2018-02-12T01:01:38.502Z,31.10
2018-02-12T01:02:38.432Z,31.90
2018-02-12T01:03:38.337Z,29.50
2018-02-12T01:04:38.257Z,30.20
2018-02-12T01:05:38.177Z,32.10
2018-02-12T01:06:38.075Z,28.60
2018-02-12T01:07:38.009Z,28.70
2018-02-12T01:08:37.927Z,31.50
2018-02-12T01:09:37.826Z,26.90
2018-02-12T01:10:37.756Z,30.00
2018-02-12T01:11:37.663Z,31.40
2018-02-12T01:12:37.578Z,30.30
2018-02-12T01:13:37.485Z,30.20
2018-02-12T01:14:37.402Z,32.50
2018-02-12T01:15:37.329Z,28.70
2018-02-12T01:16:37.225Z,29.40
2018-02-12T01:17:37.151Z,29.30
2018-02-12T01:18:37.060Z,33.20
2018-02-12T01:19:36.979Z,35.10
2018-02-12T01:20:36.899Z,33.00
2018-02-12T01:21:36.807Z,31.80
2018-02-12T01:22:36.717Z,33.00
2018-02-12T01:23:36.630Z,32.30
2018-02-12T01:24:36.551Z,32.70
2018-02-12T01:25:36.465Z,29.00
2018-02-12T01:26:36.381Z,31.60
2018-02-12T01:27:36.303Z,31.40
2018-02-12T01:28:36.208Z,30.40
2018-02-12T01:29:36.133Z,28.80
2018-02-12T01:30:36.030Z,30.50
2018-02-12T01:31:35.958Z,32.40
2018-02-12T01:32:35.871Z,29.00
2018-02-12T01:33:35.781Z,30.30
2018-02-12T01:34:35.696Z,32.00
2018-02-12T01:35:35.610Z,29.70
2018-02-12T01:36:35.524Z,33.60
2018-02-12T01:37:35.447Z,28.50
2018-02-12T01:38:35.357Z,32.60
2018-02-12T01:39:35.285Z,32.90
2018-02-12T01:40:35.184Z,31.50
2018-02-12T01:41:35.106Z,31.10
2018-02-12T01:42:35.014Z,33.00
2018-02-12T01:43:34.932Z,27.80
2018-02-12T01:44:34.850Z,29.40
2018-02-12T01:45:34.758Z,27.30
2018-02-12T01:46:34.667Z,30.60
2018-02-12T01:47:34.585Z,31.10
2018-02-12T01:48:34.495Z,29.10
2018-02-12T01:49:34.419Z,30.40
2018-02-12T01:50:34.336Z,31.20
2018-02-12T01:51:34.260Z,30.80
2018-02-12T01:52:34.163Z,28.30
2018-02-12T01:53:34.089Z,27.50
2018-02-12T01:54:33.996Z,29.70
2018-02-12T01:55:33.912Z,26.30
2018-02-12T01:56:33.831Z,30.40
2018-02-12T01:57:33.732Z,30.70
2018-02-12T01:58:33.650Z,29.60
2018-02-12T01:59:33.582Z,32.70
2018-02-12T02:00:33.472Z,32.60
2018-02-12T02:01:33.414Z,30.60
2018-02-12T02:02:33.309Z,28.80
2018-02-12T02:03:33.236Z,29.90
2018-02-12T02:04:33.132Z,31.00
2018-02-12T02:05:33.045Z,28.60
2018-02-12T02:06:32.963Z,28.60
2018-02-12T02:07:32.885Z,30.10
2018-02-12T02:08:32.805Z,31.30
2018-02-12T02:09:32.713Z,30.80
2018-02-12T02:10:32.625Z,31.10
2018-02-12T02:11:32.536Z,32.00
2018-02-12T02:12:32.448Z,28.50
2018-02-12T02:13:32.372Z,27.10
2018-02-12T02:14:32.290Z,32.20
2018-02-12T02:15:32.199Z,28.40
2018-02-12T02:16:32.116Z,29.90
2018-02-12T02:17:32.039Z,29.10
2018-02-12T02:18:31.934Z,28.50
2018-02-12T02:19:31.864Z,28.30
2018-02-12T02:20:31.784Z,31.40
2018-02-12T02:21:31.688Z,29.50
2018-02-12T02:22:31.604Z,30.30
2018-02-12T02:23:31.509Z,27.00
2018-02-12T02:24:31.437Z,28.80
2018-02-12T02:25:31.343Z,30.30
2018-02-12T02:26:31.264Z,29.20
2018-02-12T02:27:31.177Z,28.50
2018-02-12T02:28:31.084Z,30.70
2018-02-12T02:29:30.999Z,27.20
2018-02-12T02:30:30.919Z,29.20
2018-02-12T02:31:30.834Z,29.30
2018-02-12T02:32:30.751Z,28.70
2018-02-12T02:33:30.663Z,26.70
2018-02-12T02:34:30.573Z,29.10
2018-02-12T02:35:30.490Z,30.10
2018-02-12T02:36:30.404Z,27.50
2018-02-12T02:37:30.310Z,33.60
2018-02-12T02:38:30.240Z,27.20
2018-02-12T02:39:30.150Z,27.40
2018-02-12T02:40:30.067Z,28.40
2018-02-12T02:41:29.979Z,28.50
2018-02-12T02:42:29.886Z,28.40
2018-02-12T02:43:29.802Z,31.90
2018-02-12T02:44:29.713Z,30.30
2018-02-12T02:45:29.636Z,29.80
2018-02-12T02:46:29.570Z,29.30
2018-02-12T02:47:29.466Z,31.80
2018-02-12T02:48:29.392Z,33.70
2018-02-12T02:49:29.297Z,33.70
2018-02-12T02:50:29.213Z,34.20
2018-02-12T02:51:29.137Z,36.00
2018-02-12T02:52:29.046Z,29.50
2018-02-12T02:53:28.967Z,33.30
2018-02-12T02:54:28.864Z,31.90
2018-02-12T02:55:28.785Z,33.80
2018-02-12T02:56:28.693Z,31.30
2018-02-12T02:57:28.616Z,32.70
2018-02-12T02:58:28.541Z,30.20
2018-02-12T02:59:28.440Z,32.40
2018-02-12T03:00:28.368Z,31.10
2018-02-12T03:01:28.268Z,34.90
2018-02-12T03:02:28.181Z,31.80
2018-02-12T03:03:28.105Z,33.40
2018-02-12T03:04:28.013Z,30.00
2018-02-12T03:05:27.926Z,32.90
2018-02-12T03:06:27.844Z,32.50
2018-02-12T03:07:27.763Z,34.40
2018-02-12T03:08:27.670Z,35.80
2018-02-12T03:09:27.587Z,33.20
2018-02-12T03:10:27.515Z,31.80
2018-02-12T03:11:27.422Z,31.70
2018-02-12T03:12:27.329Z,31.70
2018-02-12T03:13:27.240Z,32.40
2018-02-12T03:14:27.161Z,34.00
2018-02-12T03:15:27.069Z,30.90
2018-02-12T03:16:26.994Z,32.10
2018-02-12T03:17:26.905Z,32.90
2018-02-12T03:18:26.818Z,31.70
2018-02-12T03:19:26.735Z,32.80
2018-02-12T03:20:26.639Z,30.50
2018-02-12T03:21:26.553Z,29.20
2018-02-12T03:22:26.471Z,30.80
2018-02-12T03:23:26.392Z,31.80
2018-02-12T03:24:26.309Z,26.90
2018-02-12T03:25:26.223Z,26.30
2018-02-12T03:26:26.130Z,27.10
2018-02-12T03:27:26.047Z,29.20
2018-02-12T03:28:25.970Z,29.70
2018-02-12T03:29:25.872Z,28.80
2018-02-12T03:30:25.795Z,29.80
2018-02-12T03:31:25.709Z,30.70
2018-02-12T03:32:25.623Z,30.30
2018-02-12T03:33:25.540Z,31.50
2018-02-12T03:34:25.442Z,27.90
2018-02-12T03:35:25.369Z,27.10
2018-02-12T03:36:25.267Z,28.10
2018-02-12T03:37:25.191Z,27.40
2018-02-12T03:38:25.114Z,26.70
2018-02-12T03:39:25.020Z,26.70
2018-02-12T03:40:24.939Z,27.40
2018-02-12T03:41:24.848Z,26.20
2018-02-12T03:42:24.766Z,25.00
2018-02-12T03:43:24.681Z,24.70
2018-02-12T03:44:24.592Z,25.40
2018-02-12T03:45:24.507Z,29.00
2018-02-12T03:46:24.423Z,25.70
2018-02-12T03:47:24.335Z,24.90
2018-02-12T03:48:24.253Z,26.70
2018-02-12T03:49:24.160Z,26.80
2018-02-12T03:50:24.080Z,26.80
2018-02-12T03:51:24.001Z,26.80
2018-02-12T03:52:23.910Z,25.20
2018-02-12T03:53:23.822Z,27.80
2018-02-12T03:54:23.736Z,27.10
2018-02-12T03:55:23.646Z,25.10
2018-02-12T03:56:23.566Z,26.30
2018-02-12T03:57:23.475Z,28.80
2018-02-12T03:58:23.398Z,25.50
2018-02-12T03:59:23.313Z,27.10
2018-02-12T04:00:23.220Z,25.80
2018-02-12T04:01:23.150Z,28.00
2018-02-12T04:02:23.051Z,27.60
2018-02-12T04:03:22.957Z,24.60
2018-02-12T04:04:22.874Z,24.90
2018-02-12T04:05:22.801Z,26.50
2018-02-12T04:06:22.718Z,22.40
2018-02-12T04:07:22.629Z,22.70
2018-02-12T04:08:22.534Z,21.90
2018-02-12T04:09:22.446Z,24.30
2018-02-12T04:10:22.375Z,22.80
2018-02-12T04:11:22.285Z,22.30
2018-02-12T04:12:22.200Z,23.10
2018-02-12T04:13:22.119Z,22.70
2018-02-12T04:14:22.022Z,21.00
2018-02-12T04:15:21.936Z,22.90
2018-02-12T04:16:21.850Z,21.80
2018-02-12T04:17:21.770Z,23.00
2018-02-12T04:18:21.687Z,23.00
2018-02-12T04:19:21.602Z,21.60
2018-02-12T04:20:21.515Z,19.10
2018-02-12T04:21:21.426Z,21.80
2018-02-12T04:22:21.343Z,21.00
2018-02-12T04:23:21.255Z,22.50
2018-02-12T04:24:21.176Z,20.60
2018-02-12T04:25:21.088Z,19.70
2018-02-12T04:26:21.005Z,21.40
2018-02-12T04:27:20.921Z,19.80
2018-02-12T04:28:20.829Z,22.60
2018-02-12T04:29:20.749Z,21.70
2018-02-12T04:30:20.647Z,24.50
2018-02-12T04:31:20.633Z,21.00
2018-02-12T04:32:20.502Z,18.80
2018-02-12T04:33:20.399Z,19.50
2018-02-12T04:34:20.317Z,20.10
2018-02-12T04:35:20.222Z,20.90
2018-02-12T04:36:20.151Z,17.10
2018-02-12T04:37:20.070Z,20.80
2018-02-12T04:38:19.971Z,19.10
2018-02-12T04:39:19.909Z,19.70
2018-02-12T04:40:19.799Z,16.80
2018-02-12T04:41:19.712Z,18.30
2018-02-12T04:42:19.629Z,17.50
2018-02-12T04:43:19.550Z,17.10
2018-02-12T04:44:19.498Z,19.60
2018-02-12T04:45:19.379Z,17.50
2018-02-12T04:46:19.303Z,19.30
2018-02-12T04:47:19.207Z,18.50
2018-02-12T04:48:19.122Z,18.20
2018-02-12T04:49:19.025Z,17.00
2018-02-12T04:50:18.953Z,19.10
2018-02-12T04:51:18.864Z,18.30
2018-02-12T04:52:18.780Z,19.00
2018-02-12T04:53:18.705Z,16.80
2018-02-12T04:54:18.604Z,16.50
2018-02-12T04:55:18.528Z,15.20
2018-02-12T04:56:18.437Z,15.20
2018-02-12T04:57:18.350Z,16.60
2018-02-12T04:58:18.270Z,15.60
2018-02-12T04:59:18.179Z,15.50
2018-02-12T05:00:18.102Z,15.50
2018-02-12T05:01:18.019Z,18.50
2018-02-12T05:02:17.928Z,17.70
2018-02-12T05:03:17.840Z,16.70
2018-02-12T05:04:17.760Z,17.40
2018-02-12T05:05:17.681Z,17.20
2018-02-12T05:06:17.579Z,19.10
2018-02-12T05:07:17.504Z,18.60
2018-02-12T05:08:17.417Z,17.90
2018-02-12T05:09:17.332Z,18.00
2018-02-12T05:10:17.257Z,16.80
2018-02-12T05:11:17.155Z,20.50
2018-02-12T05:12:17.081Z,17.50
2018-02-12T05:13:17.007Z,19.60
2018-02-12T05:14:16.905Z,19.90
2018-02-12T05:15:16.820Z,16.90
2018-02-12T05:16:16.732Z,16.00
2018-02-12T05:17:16.661Z,17.60
2018-02-12T05:18:16.586Z,16.10
2018-02-12T05:19:16.482Z,16.80
2018-02-12T05:20:16.398Z,17.90
2018-02-12T05:21:16.311Z,16.70
2018-02-12T05:22:16.226Z,16.50
2018-02-12T05:23:16.145Z,15.90
2018-02-12T05:24:16.059Z,17.50
2018-02-12T05:25:15.978Z,16.50
2018-02-12T05:26:15.888Z,19.80
2018-02-12T05:27:15.791Z,18.00
2018-02-12T05:28:15.709Z,17.30
2018-02-12T05:29:15.637Z,16.60
2018-02-12T05:30:15.541Z,14.90
2018-02-12T05:31:15.466Z,16.80
2018-02-12T05:32:15.367Z,16.80
2018-02-12T05:33:15.282Z,16.70
2018-02-12T05:34:15.213Z,16.40
2018-02-12T05:35:15.123Z,17.60
2018-02-12T05:36:15.037Z,15.30
2018-02-12T05:37:14.953Z,16.30
2018-02-12T05:38:14.859Z,15.80
2018-02-12T05:39:14.782Z,15.30
2018-02-12T05:40:14.697Z,15.60
2018-02-12T05:41:14.603Z,18.20
2018-02-12T05:42:14.521Z,16.40
2018-02-12T05:43:14.430Z,15.50
2018-02-12T05:44:14.360Z,15.60
2018-02-12T05:45:14.277Z,14.80
2018-02-12T05:46:14.182Z,15.80
2018-02-12T05:47:14.114Z,14.50
2018-02-12T05:48:14.010Z,14.40
2018-02-12T05:49:13.936Z,14.60
2018-02-12T05:50:13.850Z,14.50
2018-02-12T05:51:13.756Z,14.40
2018-02-12T05:52:13.672Z,15.50
2018-02-12T05:53:13.585Z,17.00
2018-02-12T05:54:13.511Z,14.80
2018-02-12T05:55:13.429Z,18.20
2018-02-12T05:56:13.333Z,14.80
2018-02-12T05:57:13.247Z,14.70
2018-02-12T05:58:13.163Z,16.90
2018-02-12T05:59:13.080Z,14.80
2018-02-12T06:00:13.004Z,14.50
2018-02-12T06:01:12.914Z,13.80
2018-02-12T06:02:12.820Z,14.80
2018-02-12T06:03:12.736Z,15.00
2018-02-12T06:04:12.659Z,14.30
2018-02-12T06:05:12.575Z,14.90
2018-02-12T06:06:12.487Z,17.20
2018-02-12T06:07:12.396Z,14.40
2018-02-12T06:08:12.313Z,14.50
2018-02-12T06:09:12.224Z,17.70
2018-02-12T06:10:12.162Z,15.70
2018-02-12T06:11:12.071Z,14.10
2018-02-12T06:12:11.972Z,14.90
2018-02-12T06:13:11.888Z,15.70
2018-02-12T06:14:11.813Z,16.50
2018-02-12T06:15:11.721Z,13.80
2018-02-12T06:16:11.642Z,17.10
2018-02-12T06:17:11.564Z,13.90
2018-02-12T06:18:11.456Z,14.60
2018-02-12T06:19:11.387Z,13.70
2018-02-12T06:20:11.303Z,17.30
2018-02-12T06:21:11.208Z,17.20
2018-02-12T06:22:11.125Z,16.00
2018-02-12T06:23:11.035Z,14.50
2018-02-12T06:24:10.964Z,14.90
2018-02-12T06:25:10.877Z,13.90
2018-02-12T06:26:10.785Z,15.10
2018-02-12T06:27:10.705Z,14.60
2018-02-12T06:28:10.622Z,17.60
2018-02-12T06:29:10.535Z,16.40
2018-02-12T06:30:10.463Z,15.80
2018-02-12T06:31:10.366Z,16.40
2018-02-12T06:32:10.281Z,14.40
2018-02-12T06:33:10.194Z,15.50
2018-02-12T06:34:10.113Z,16.80
2018-02-12T06:35:10.028Z,15.50
2018-02-12T06:36:09.937Z,16.30
2018-02-12T06:37:09.852Z,17.40
2018-02-12T06:38:09.779Z,17.50
2018-02-12T06:39:09.686Z,15.80
2018-02-12T06:40:09.621Z,15.40
2018-02-12T06:41:09.514Z,19.20
2018-02-12T06:42:09.442Z,16.50
2018-02-12T06:43:09.357Z,17.70
2018-02-12T06:44:09.262Z,14.10
2018-02-12T06:45:09.178Z,16.50
2018-02-12T06:46:09.096Z,15.50
2018-02-12T06:47:09.017Z,15.60
2018-02-12T06:48:08.929Z,16.30
2018-02-12T06:49:08.840Z,17.10
2018-02-12T06:50:08.754Z,15.60
2018-02-12T06:51:08.671Z,15.20
2018-02-12T06:52:08.589Z,14.10
2018-02-12T06:53:08.500Z,15.60
2018-02-12T06:54:08.414Z,14.50
2018-02-12T06:55:08.342Z,15.50
2018-02-12T06:56:08.260Z,15.30
2018-02-12T06:57:08.169Z,16.40
2018-02-12T06:58:08.078Z,17.60
2018-02-12T06:59:08.030Z,15.50
2018-02-12T07:00:07.901Z,16.10
2018-02-12T07:01:07.812Z,15.50
2018-02-12T07:02:07.741Z,16.00
2018-02-12T07:03:07.652Z,16.50
2018-02-12T07:04:07.573Z,14.30
2018-02-12T07:05:07.484Z,15.00
2018-02-12T07:06:07.419Z,16.20
2018-02-12T07:07:07.324Z,15.10
2018-02-12T07:08:07.248Z,15.70
2018-02-12T07:09:07.142Z,15.60
2018-02-12T07:10:07.064Z,19.20
2018-02-12T07:11:06.993Z,15.80
2018-02-12T07:12:06.897Z,13.90
2018-02-12T07:13:06.849Z,15.20
2018-02-12T07:14:06.721Z,14.30
2018-02-12T07:15:06.644Z,12.00
2018-02-12T07:16:06.558Z,13.30
2018-02-12T07:17:06.475Z,15.60
2018-02-12T07:18:06.389Z,14.70
2018-02-12T07:19:06.322Z,14.50
2018-02-12T07:20:06.217Z,13.60
2018-02-12T07:21:06.140Z,15.20
2018-02-12T07:22:06.049Z,12.90
2018-02-12T07:23:05.969Z,13.90
2018-02-12T07:24:05.896Z,13.50
2018-02-12T07:25:05.797Z,12.80
2018-02-12T07:26:05.709Z,15.00
2018-02-12T07:27:05.623Z,13.60
2018-02-12T07:28:05.543Z,16.10
2018-02-12T07:29:05.469Z,14.70
2018-02-12T07:30:05.375Z,14.70
2018-02-12T07:31:05.293Z,12.90
2018-02-12T07:32:05.215Z,14.60
2018-02-12T07:33:05.125Z,13.30
2018-02-12T07:34:05.042Z,15.00
2018-02-12T07:35:04.947Z,14.30
2018-02-12T07:36:04.866Z,16.90
2018-02-12T07:37:04.809Z,13.90
2018-02-12T07:38:04.809Z,14.50
2018-02-12T07:39:04.721Z,15.90
2018-02-12T07:40:04.526Z,16.00
2018-02-12T07:41:04.483Z,14.70
2018-02-12T07:42:04.593Z,13.50
2018-02-12T07:43:04.277Z,13.70
2018-02-12T07:44:04.196Z,14.20
2018-02-12T07:45:04.109Z,15.90
2018-02-12T07:46:04.030Z,14.50
2018-02-12T07:47:03.942Z,13.10
2018-02-12T07:48:03.849Z,14.60
2018-02-12T07:49:03.780Z,13.50
2018-02-12T07:50:03.694Z,13.40
2018-02-12T07:51:03.599Z,14.30
2018-02-12T07:52:03.528Z,13.20
2018-02-12T07:53:03.446Z,14.00
2018-02-12T07:54:03.363Z,14.10
2018-02-12T07:55:03.274Z,16.20
2018-02-12T07:56:03.200Z,13.40
2018-02-12T07:57:03.104Z,12.30
2018-02-12T07:58:03.010Z,12.30
2018-02-12T07:59:02.933Z,14.90
2018-02-12T08:00:02.846Z,14.50
2018-02-12T08:01:02.769Z,16.10
2018-02-12T08:02:02.679Z,13.30
2018-02-12T08:03:02.596Z,14.20
2018-02-12T08:04:02.527Z,13.90
2018-02-12T08:05:02.425Z,12.00
2018-02-12T08:06:02.337Z,13.90
2018-02-12T08:07:02.267Z,12.20
2018-02-12T08:08:02.176Z,15.20
2018-02-12T08:09:02.083Z,13.10
2018-02-12T08:10:02.013Z,14.00
2018-02-12T08:11:01.922Z,15.90
2018-02-12T08:12:01.873Z,14.20
2018-02-12T08:13:01.752Z,14.10
2018-02-12T08:14:01.673Z,14.20
2018-02-12T08:15:01.589Z,14.20
2018-02-12T08:16:01.498Z,13.60
2018-02-12T08:17:01.429Z,14.00
2018-02-12T08:18:01.401Z,14.20
2018-02-12T08:19:01.248Z,14.30
2018-02-12T08:20:01.167Z,14.30
2018-02-12T08:21:01.095Z,13.90
2018-02-12T08:22:01.000Z,13.60
2018-02-12T08:23:00.918Z,13.30
2018-02-12T08:24:00.849Z,13.10
2018-02-12T08:25:00.748Z,14.90
2018-02-12T08:26:00.677Z,15.30
2018-02-12T08:27:00.577Z,15.50
2018-02-12T08:28:00.502Z,15.20
2018-02-12T08:29:00.420Z,14.20
2018-02-12T08:30:00.322Z,13.80
2018-02-12T08:31:00.253Z,14.30
2018-02-12T08:32:00.163Z,13.80
2018-02-12T08:33:00.078Z,13.60
2018-02-12T08:34:00.008Z,14.40
2018-02-12T08:34:59.913Z,13.50
2018-02-12T08:35:59.827Z,11.80
2018-02-12T08:36:59.755Z,14.10
2018-02-12T08:37:59.661Z,13.90
2018-02-12T08:38:59.578Z,13.80
2018-02-12T08:39:59.502Z,14.60
2018-02-12T08:40:59.418Z,11.90
2018-02-12T08:41:59.332Z,14.00
2018-02-12T08:42:59.250Z,13.20
2018-02-12T08:43:59.172Z,13.10
2018-02-12T08:44:59.079Z,12.30
2018-02-12T08:45:58.989Z,12.90
2018-02-12T08:46:58.916Z,15.00
2018-02-12T08:47:58.828Z,13.80
2018-02-12T08:48:58.762Z,13.10
2018-02-12T08:49:58.671Z,15.80
2018-02-12T08:50:58.587Z,14.80
2018-02-12T08:51:59.131Z,12.70
2018-02-12T08:52:58.509Z,12.20
2018-02-12T08:53:58.359Z,14.60
2018-02-12T08:54:58.275Z,12.90
2018-02-12T08:55:58.199Z,14.50
2018-02-12T08:56:58.163Z,16.50
2018-02-12T08:57:58.510Z,14.00
2018-02-12T08:58:57.914Z,12.20
2018-02-12T08:59:57.832Z,13.70
2018-02-12T09:00:57.743Z,12.20
2018-02-12T09:01:57.652Z,17.50
2018-02-12T09:02:57.584Z,13.80
2018-02-12T09:03:57.503Z,11.90
2018-02-12T09:04:57.404Z,14.40
2018-02-12T09:05:57.337Z,13.20
2018-02-12T09:06:57.240Z,12.10
2018-02-12T09:07:57.155Z,11.20
2018-02-12T09:08:57.080Z,12.60
2018-02-12T09:09:57.000Z,12.50
2018-02-12T09:10:56.964Z,13.60
2018-02-12T09:11:56.828Z,14.50
2018-02-12T09:12:56.747Z,13.20
2018-02-12T09:13:56.662Z,12.20
2018-02-12T09:14:56.582Z,13.10
2018-02-12T09:15:56.508Z,12.30
2018-02-12T09:16:56.406Z,12.60
2018-02-12T09:17:56.335Z,14.40
2018-02-12T09:18:56.247Z,12.00
2018-02-12T09:19:56.245Z,12.60
2018-02-12T09:20:56.087Z,13.80
2018-02-12T09:21:55.990Z,11.70
2018-02-12T09:22:55.909Z,12.20
2018-02-12T09:23:55.833Z,12.80
2018-02-12T09:24:55.743Z,12.80
2018-02-12T09:25:55.661Z,11.90
2018-02-12T09:26:55.694Z,15.40
2018-02-12T09:27:55.496Z,14.00
2018-02-12T09:28:55.410Z,13.20
2018-02-12T09:29:55.328Z,13.00
2018-02-12T09:30:55.264Z,12.60
2018-02-12T09:31:55.159Z,13.40
2018-02-12T09:32:55.080Z,13.90
2018-02-12T09:33:55.034Z,16.00
2018-02-12T09:34:54.908Z,12.20
2018-02-12T09:35:54.835Z,15.20
2018-02-12T09:36:54.750Z,15.20
2018-02-12T09:37:54.658Z,15.40
2018-02-12T09:38:54.585Z,14.00
2018-02-12T09:39:54.519Z,14.00
2018-02-12T09:40:54.405Z,14.80
2018-02-12T09:41:54.342Z,14.70
2018-02-12T09:42:54.258Z,13.90
2018-02-12T09:43:54.182Z,14.50
2018-02-12T09:44:54.092Z,13.20
2018-02-12T09:45:53.995Z,13.10
2018-02-12T09:46:53.913Z,16.20
2018-02-12T09:47:53.835Z,15.30
2018-02-12T09:48:53.819Z,14.50
2018-02-12T09:49:53.716Z,14.10
2018-02-12T09:50:53.587Z,15.20
2018-02-12T09:51:53.515Z,15.20
2018-02-12T09:52:53.415Z,13.90
2018-02-12T09:53:53.340Z,14.70
2018-02-12T09:54:53.254Z,14.70
2018-02-12T09:55:53.158Z,14.30
2018-02-12T09:56:53.087Z,18.40
2018-02-12T09:57:53.030Z,21.30
2018-02-12T09:58:52.935Z,16.50
2018-02-12T09:59:52.846Z,13.30
2018-02-12T10:00:52.751Z,14.40
2018-02-12T10:01:52.664Z,16.10
2018-02-12T10:02:52.585Z,12.80
2018-02-12T10:03:52.494Z,13.30
2018-02-12T10:04:52.433Z,12.90
2018-02-12T10:05:52.336Z,12.50
2018-02-12T10:06:52.259Z,13.60
2018-02-12T10:07:52.190Z,15.50
2018-02-12T10:08:52.089Z,13.70
2018-02-12T10:09:52.011Z,14.80
2018-02-12T10:10:51.936Z,13.10
2018-02-12T10:11:51.862Z,13.10
2018-02-12T10:12:51.860Z,14.10
2018-02-12T10:13:51.681Z,12.80
2018-02-12T10:14:51.590Z,13.30
2018-02-12T10:15:51.519Z,13.60
2018-02-12T10:16:51.428Z,13.00
2018-02-12T10:17:51.349Z,11.80
2018-02-12T10:18:51.262Z,14.20
2018-02-12T10:19:51.173Z,15.10
2018-02-12T10:20:51.100Z,14.20
2018-02-12T10:21:51.013Z,12.90
2018-02-12T10:22:50.939Z,12.90
2018-02-12T10:23:50.871Z,12.80
2018-02-12T10:24:50.770Z,12.50
2018-02-12T10:25:50.735Z,11.30
2018-02-12T10:26:50.607Z,11.50
2018-02-12T10:27:50.523Z,12.00
2018-02-12T10:28:50.438Z,11.80
2018-02-12T10:29:50.363Z,11.50
2018-02-12T10:30:50.291Z,13.30
2018-02-12T10:31:50.190Z,12.70
2018-02-12T10:32:50.120Z,13.20
2018-02-12T10:33:50.039Z,12.20
2018-02-12T10:34:49.955Z,11.60
2018-02-12T10:35:49.879Z,12.40
2018-02-12T10:36:49.780Z,14.10
2018-02-12T10:37:49.705Z,14.00
2018-02-12T10:38:49.611Z,12.20
2018-02-12T10:39:49.540Z,11.80
2018-02-12T10:40:49.469Z,14.10
2018-02-12T10:41:49.381Z,11.30
2018-02-12T10:42:49.291Z,12.40
2018-02-12T10:43:49.213Z,13.30
2018-02-12T10:44:49.128Z,12.30
2018-02-12T10:45:49.110Z,12.80
2018-02-12T10:46:48.964Z,13.80
2018-02-12T10:47:48.889Z,12.30
2018-02-12T10:48:48.794Z,13.70
2018-02-12T10:49:48.717Z,11.30
2018-02-12T10:50:48.641Z,12.40
2018-02-12T10:51:48.553Z,13.40
2018-02-12T10:52:48.469Z,11.30
2018-02-12T10:53:48.392Z,10.80
2018-02-12T10:54:48.315Z,11.10
2018-02-12T10:55:48.220Z,10.40
2018-02-12T10:56:48.144Z,10.70
2018-02-12T10:57:48.057Z,11.50
2018-02-12T10:58:47.985Z,10.70
2018-02-12T10:59:47.892Z,12.00
2018-02-12T11:00:47.819Z,12.60
2018-02-12T11:01:47.745Z,12.80
2018-02-12T11:02:47.640Z,11.60
2018-02-12T11:03:47.568Z,13.10
2018-02-12T11:04:47.483Z,9.80
2018-02-12T11:05:47.436Z,11.60
2018-02-12T11:06:47.321Z,12.10
2018-02-12T11:07:47.244Z,10.30
2018-02-12T11:08:47.167Z,9.00
2018-02-12T11:09:47.070Z,11.60
2018-02-12T11:10:47.001Z,10.30
2018-02-12T11:11:46.921Z,9.50
2018-02-12T11:12:46.822Z,12.20
2018-02-12T11:13:46.739Z,11.30
2018-02-12T11:14:46.672Z,10.90
2018-02-12T11:15:46.579Z,10.70
2018-02-12T11:16:46.494Z,9.40
2018-02-12T11:17:46.421Z,10.00
2018-02-12T11:18:46.331Z,9.80
2018-02-12T11:19:46.251Z,10.90
2018-02-12T11:20:46.177Z,10.70
2018-02-12T11:21:46.094Z,9.70
2018-02-12T11:22:46.008Z,9.50
2018-02-12T11:23:45.926Z,11.60
2018-02-12T11:24:45.848Z,11.20
2018-02-12T11:25:45.755Z,10.20
2018-02-12T11:26:45.702Z,9.70
2018-02-12T11:27:45.594Z,9.30
2018-02-12T11:28:45.521Z,9.20
2018-02-12T11:29:45.449Z,9.20
2018-02-12T11:30:45.357Z,10.50
2018-02-12T11:31:45.294Z,10.20
2018-02-12T11:32:45.199Z,9.50
2018-02-12T11:33:45.104Z,10.30
2018-02-12T11:34:45.028Z,9.30
2018-02-12T11:35:44.945Z,8.50
2018-02-12T11:36:44.869Z,11.50
2018-02-12T11:37:44.792Z,10.50
2018-02-12T11:38:44.697Z,10.80
2018-02-12T11:39:44.624Z,10.70
2018-02-12T11:40:44.537Z,9.90
2018-02-12T11:41:44.460Z,10.50
2018-02-12T11:42:44.375Z,9.00
2018-02-12T11:43:44.291Z,10.30
2018-02-12T11:44:44.207Z,10.80
2018-02-12T11:45:44.130Z,8.90
2018-02-12T11:46:44.045Z,11.30
2018-02-12T11:47:43.964Z,10.50
2018-02-12T11:48:43.902Z,12.00
2018-02-12T11:49:43.795Z,11.20
2018-02-12T11:50:43.723Z,10.70
2018-02-12T11:51:43.642Z,9.80
2018-02-12T11:52:43.572Z,9.00
2018-02-12T11:53:43.476Z,10.70
2018-02-12T11:54:43.398Z,10.70
2018-02-12T11:55:43.325Z,10.30
2018-02-12T11:56:43.225Z,10.30
2018-02-12T11:57:43.158Z,10.90
2018-02-12T11:58:43.075Z,10.60
2018-02-12T11:59:42.999Z,8.90
2018-02-12T12:00:42.897Z,10.50
2018-02-12T12:01:42.829Z,11.60
2018-02-12T12:02:42.743Z,10.20
2018-02-12T12:03:42.663Z,10.60
2018-02-12T12:04:42.586Z,12.60
2018-02-12T12:05:42.494Z,11.70
2018-02-12T12:06:42.428Z,9.80
2018-02-12T12:07:42.327Z,9.90
2018-02-12T12:08:42.256Z,10.40
2018-02-12T12:09:42.172Z,9.50
2018-02-12T12:10:42.089Z,8.00
2018-02-12T12:11:42.005Z,10.60
2018-02-12T12:12:41.926Z,9.20
2018-02-12T12:13:41.853Z,9.50
2018-02-12T12:14:41.750Z,8.10
2018-02-12T12:15:41.674Z,9.10
2018-02-12T12:16:41.595Z,7.90
2018-02-12T12:17:41.518Z,10.60
2018-02-12T12:18:41.455Z,8.10
2018-02-12T12:19:41.344Z,10.90
2018-02-12T12:20:41.265Z,9.00
2018-02-12T12:21:41.178Z,10.10
2018-02-12T12:22:41.107Z,10.90
2018-02-12T12:23:41.010Z,10.50
2018-02-12T12:24:40.934Z,7.80
2018-02-12T12:25:40.858Z,9.80
2018-02-12T12:26:40.776Z,7.70
2018-02-12T12:27:40.702Z,8.30
2018-02-12T12:28:40.605Z,9.10
2018-02-12T12:29:40.525Z,7.10
2018-02-12T12:30:40.458Z,8.70
2018-02-12T12:31:40.374Z,8.40
2018-02-12T12:32:40.280Z,9.70
2018-02-12T12:33:40.206Z,7.70
2018-02-12T12:34:40.127Z,7.80
2018-02-12T12:35:40.046Z,8.20
2018-02-12T12:36:39.955Z,7.70
2018-02-12T12:37:39.874Z,7.00
2018-02-12T12:38:39.808Z,7.60
2018-02-12T12:39:39.727Z,9.60
2018-02-12T12:40:39.638Z,7.80
2018-02-12T12:41:39.560Z,7.00
2018-02-12T12:42:39.491Z,10.20
2018-02-12T12:43:39.416Z,10.90
2018-02-12T12:44:39.328Z,6.60
2018-02-12T12:45:39.236Z,7.80
2018-02-12T12:46:39.161Z,7.20
2018-02-12T12:47:39.077Z,7.20
2018-02-12T12:48:39.004Z,7.50
2018-02-12T12:49:38.930Z,4.70
2018-02-12T12:50:38.849Z,6.20
2018-02-12T12:51:38.771Z,5.10
2018-02-12T12:52:38.678Z,8.60
2018-02-12T12:53:38.648Z,6.30